sensor_id;sensor_type;location;lat;lon;timestamp;P1;durP1;ratioP1;P2;durP2;ratioP2
19043;SDS011;9654;52.302;8.120;2023-10-13T00:00:48;89.70;;;44.30;;
19043;SDS011;9654;52.302;8.120;2023-10-13T00:03:15;81.43;;;42.37;;
19043;SDS011;9654;52.302;8.120;2023-10-13T00:05:43;83.80;;;41.77;;
19043;SDS011;9654;52.302;8.120;2023-10-13T00:08:10;86.63;;;42.80;;
19043;SDS011;9654;52.302;8.120;2023-10-13T00:10:38;80.07;;;41.03;;
19043;SDS011;9654;52.302;8.120;2023-10-13T00:13:05;80.73;;;40.93;;
19043;SDS011;9654;52.302;8.120;2023-10-13T00:15:38;74.37;;;39.30;;
19043;SDS011;9654;52.302;8.120;2023-10-13T00:18:11;76.40;;;39.00;;
19043;SDS011;9654;52.302;8.120;2023-10-13T00:20:39;83.27;;;40.57;;
19043;SDS011;9654;52.302;8.120;2023-10-13T00:23:13;70.13;;;37.20;;
19043;SDS011;9654;52.302;8.120;2023-10-13T00:25:40;76.33;;;39.57;;
19043;SDS011;9654;52.302;8.120;2023-10-13T00:28:15;70.10;;;38.33;;
19043;SDS011;9654;52.302;8.120;2023-10-13T00:30:49;74.60;;;38.77;;
19043;SDS011;9654;52.302;8.120;2023-10-13T00:33:18;69.53;;;36.50;;
19043;SDS011;9654;52.302;8.120;2023-10-13T00:35:47;72.07;;;38.57;;
19043;SDS011;9654;52.302;8.120;2023-10-13T00:38:17;72.37;;;38.00;;
19043;SDS011;9654;52.302;8.120;2023-10-13T00:40:44;73.00;;;37.63;;
19043;SDS011;9654;52.302;8.120;2023-10-13T00:43:17;74.47;;;36.40;;
19043;SDS011;9654;52.302;8.120;2023-10-13T00:46:02;66.13;;;36.67;;
19043;SDS011;9654;52.302;8.120;2023-10-13T00:48:35;68.07;;;37.00;;
19043;SDS011;9654;52.302;8.120;2023-10-13T00:51:08;66.17;;;37.93;;
19043;SDS011;9654;52.302;8.120;2023-10-13T00:53:43;77.70;;;37.67;;
19043;SDS011;9654;52.302;8.120;2023-10-13T00:56:12;68.13;;;35.77;;
19043;SDS011;9654;52.302;8.120;2023-10-13T00:58:44;70.97;;;37.60;;
19043;SDS011;9654;52.302;8.120;2023-10-13T01:01:15;71.93;;;37.33;;
19043;SDS011;9654;52.302;8.120;2023-10-13T01:03:46;70.17;;;38.07;;
19043;SDS011;9654;52.302;8.120;2023-10-13T01:06:15;68.50;;;38.37;;
19043;SDS011;9654;52.302;8.120;2023-10-13T01:08:45;67.77;;;37.80;;
19043;SDS011;9654;52.302;8.120;2023-10-13T01:11:16;68.63;;;37.53;;
19043;SDS011;9654;52.302;8.120;2023-10-13T01:13:43;75.13;;;39.63;;
19043;SDS011;9654;52.302;8.120;2023-10-13T01:16:12;79.23;;;41.80;;
19043;SDS011;9654;52.302;8.120;2023-10-13T01:18:38;78.70;;;40.90;;
19043;SDS011;9654;52.302;8.120;2023-10-13T01:21:14;79.50;;;43.53;;
19043;SDS011;9654;52.302;8.120;2023-10-13T01:23:43;77.97;;;43.07;;
19043;SDS011;9654;52.302;8.120;2023-10-13T01:26:11;85.30;;;44.33;;
19043;SDS011;9654;52.302;8.120;2023-10-13T01:28:38;75.43;;;42.57;;
19043;SDS011;9654;52.302;8.120;2023-10-13T01:31:11;82.73;;;42.07;;
19043;SDS011;9654;52.302;8.120;2023-10-13T01:33:42;75.77;;;42.57;;
19043;SDS011;9654;52.302;8.120;2023-10-13T01:36:09;83.17;;;43.60;;
19043;SDS011;9654;52.302;8.120;2023-10-13T01:38:37;76.83;;;43.07;;
19043;SDS011;9654;52.302;8.120;2023-10-13T01:41:09;82.30;;;43.50;;
19043;SDS011;9654;52.302;8.120;2023-10-13T01:43:34;78.90;;;44.33;;
19043;SDS011;9654;52.302;8.120;2023-10-13T01:46:01;79.07;;;43.73;;
19043;SDS011;9654;52.302;8.120;2023-10-13T01:48:28;75.57;;;41.63;;
19043;SDS011;9654;52.302;8.120;2023-10-13T01:50:57;76.23;;;42.43;;
19043;SDS011;9654;52.302;8.120;2023-10-13T01:53:26;69.50;;;40.83;;
19043;SDS011;9654;52.302;8.120;2023-10-13T01:55:54;77.00;;;43.20;;
19043;SDS011;9654;52.302;8.120;2023-10-13T01:58:23;74.83;;;41.83;;
19043;SDS011;9654;52.302;8.120;2023-10-13T02:00:53;81.00;;;43.93;;
19043;SDS011;9654;52.302;8.120;2023-10-13T02:03:21;75.77;;;41.53;;
19043;SDS011;9654;52.302;8.120;2023-10-13T02:05:48;73.80;;;42.10;;
19043;SDS011;9654;52.302;8.120;2023-10-13T02:08:18;68.20;;;40.47;;
19043;SDS011;9654;52.302;8.120;2023-10-13T02:10:48;74.50;;;41.90;;
19043;SDS011;9654;52.302;8.120;2023-10-13T02:13:14;71.67;;;41.20;;
19043;SDS011;9654;52.302;8.120;2023-10-13T02:15:44;70.37;;;41.77;;
19043;SDS011;9654;52.302;8.120;2023-10-13T02:18:13;69.67;;;40.57;;
19043;SDS011;9654;52.302;8.120;2023-10-13T02:20:45;78.43;;;41.03;;
19043;SDS011;9654;52.302;8.120;2023-10-13T02:23:19;64.67;;;39.73;;
19043;SDS011;9654;52.302;8.120;2023-10-13T02:25:45;63.90;;;38.13;;
19043;SDS011;9654;52.302;8.120;2023-10-13T02:28:12;62.07;;;37.93;;
19043;SDS011;9654;52.302;8.120;2023-10-13T02:30:48;61.50;;;36.27;;
19043;SDS011;9654;52.302;8.120;2023-10-13T02:33:15;65.57;;;39.03;;
19043;SDS011;9654;52.302;8.120;2023-10-13T02:35:47;58.77;;;36.53;;
19043;SDS011;9654;52.302;8.120;2023-10-13T02:38:18;55.97;;;35.37;;
19043;SDS011;9654;52.302;8.120;2023-10-13T02:40:53;62.63;;;36.67;;
19043;SDS011;9654;52.302;8.120;2023-10-13T02:43:21;64.40;;;35.37;;
19043;SDS011;9654;52.302;8.120;2023-10-13T02:45:55;60.33;;;35.50;;
19043;SDS011;9654;52.302;8.120;2023-10-13T02:48:24;59.80;;;35.80;;
19043;SDS011;9654;52.302;8.120;2023-10-13T02:50:55;57.30;;;34.83;;
19043;SDS011;9654;52.302;8.120;2023-10-13T02:53:26;58.30;;;35.17;;
19043;SDS011;9654;52.302;8.120;2023-10-13T02:55:53;63.47;;;36.10;;
19043;SDS011;9654;52.302;8.120;2023-10-13T02:58:22;60.57;;;36.40;;
19043;SDS011;9654;52.302;8.120;2023-10-13T03:00:48;58.53;;;35.10;;
19043;SDS011;9654;52.302;8.120;2023-10-13T03:03:16;66.10;;;36.97;;
19043;SDS011;9654;52.302;8.120;2023-10-13T03:05:43;59.87;;;36.23;;
19043;SDS011;9654;52.302;8.120;2023-10-13T03:08:11;65.43;;;37.67;;
19043;SDS011;9654;52.302;8.120;2023-10-13T03:10:42;60.10;;;36.30;;
19043;SDS011;9654;52.302;8.120;2023-10-13T03:13:13;57.93;;;36.87;;
19043;SDS011;9654;52.302;8.120;2023-10-13T03:15:38;64.57;;;37.97;;
19043;SDS011;9654;52.302;8.120;2023-10-13T03:18:05;54.17;;;35.80;;
19043;SDS011;9654;52.302;8.120;2023-10-13T03:20:33;60.83;;;36.40;;
19043;SDS011;9654;52.302;8.120;2023-10-13T03:23:07;64.57;;;37.57;;
19043;SDS011;9654;52.302;8.120;2023-10-13T03:25:34;63.33;;;36.17;;
19043;SDS011;9654;52.302;8.120;2023-10-13T03:28:07;61.97;;;37.23;;
19043;SDS011;9654;52.302;8.120;2023-10-13T03:30:36;57.27;;;35.70;;
19043;SDS011;9654;52.302;8.120;2023-10-13T03:33:06;61.13;;;37.80;;
19043;SDS011;9654;52.302;8.120;2023-10-13T03:35:36;61.73;;;35.17;;
19043;SDS011;9654;52.302;8.120;2023-10-13T03:38:03;57.20;;;34.43;;
19043;SDS011;9654;52.302;8.120;2023-10-13T03:40:36;55.67;;;34.10;;
19043;SDS011;9654;52.302;8.120;2023-10-13T03:43:05;58.37;;;34.80;;
19043;SDS011;9654;52.302;8.120;2023-10-13T03:45:35;53.50;;;33.17;;
19043;SDS011;9654;52.302;8.120;2023-10-13T03:48:04;49.50;;;31.00;;
19043;SDS011;9654;52.302;8.120;2023-10-13T03:50:35;47.57;;;31.10;;
19043;SDS011;9654;52.302;8.120;2023-10-13T03:53:11;57.63;;;32.30;;
19043;SDS011;9654;52.302;8.120;2023-10-13T03:55:38;45.50;;;29.27;;
19043;SDS011;9654;52.302;8.120;2023-10-13T03:58:05;45.90;;;29.10;;
19043;SDS011;9654;52.302;8.120;2023-10-13T04:00:35;48.37;;;29.27;;
19043;SDS011;9654;52.302;8.120;2023-10-13T04:03:03;44.93;;;29.10;;
19043;SDS011;9654;52.302;8.120;2023-10-13T04:05:34;49.90;;;29.27;;
19043;SDS011;9654;52.302;8.120;2023-10-13T04:08:07;52.90;;;29.90;;
19043;SDS011;9654;52.302;8.120;2023-10-13T04:10:52;54.17;;;31.00;;
19043;SDS011;9654;52.302;8.120;2023-10-13T04:13:37;44.10;;;30.53;;
19043;SDS011;9654;52.302;8.120;2023-10-13T04:16:30;50.57;;;31.60;;
19043;SDS011;9654;52.302;8.120;2023-10-13T04:19:15;51.27;;;30.80;;
19043;SDS011;9654;52.302;8.120;2023-10-13T04:21:49;53.30;;;32.23;;
19043;SDS011;9654;52.302;8.120;2023-10-13T04:24:24;55.33;;;31.80;;
19043;SDS011;9654;52.302;8.120;2023-10-13T04:27:18;53.47;;;31.17;;
19043;SDS011;9654;52.302;8.120;2023-10-13T04:30:04;54.30;;;32.50;;
19043;SDS011;9654;52.302;8.120;2023-10-13T04:32:49;49.10;;;31.57;;
19043;SDS011;9654;52.302;8.120;2023-10-13T04:35:30;56.13;;;31.70;;
19043;SDS011;9654;52.302;8.120;2023-10-13T04:38:02;53.90;;;30.90;;
19043;SDS011;9654;52.302;8.120;2023-10-13T04:40:43;51.57;;;31.70;;
19043;SDS011;9654;52.302;8.120;2023-10-13T04:43:24;52.70;;;31.03;;
19043;SDS011;9654;52.302;8.120;2023-10-13T04:45:58;53.13;;;32.63;;
19043;SDS011;9654;52.302;8.120;2023-10-13T04:48:39;55.90;;;31.67;;
19043;SDS011;9654;52.302;8.120;2023-10-13T04:51:11;51.50;;;32.17;;
19043;SDS011;9654;52.302;8.120;2023-10-13T04:54:00;55.77;;;31.53;;
19043;SDS011;9654;52.302;8.120;2023-10-13T04:56:29;51.10;;;31.00;;
19043;SDS011;9654;52.302;8.120;2023-10-13T04:59:14;56.07;;;31.50;;
19043;SDS011;9654;52.302;8.120;2023-10-13T05:02:00;52.47;;;30.93;;
19043;SDS011;9654;52.302;8.120;2023-10-13T05:04:41;49.20;;;30.47;;
19043;SDS011;9654;52.302;8.120;2023-10-13T05:07:21;49.03;;;30.40;;
19043;SDS011;9654;52.302;8.120;2023-10-13T05:10:07;50.10;;;30.97;;
19043;SDS011;9654;52.302;8.120;2023-10-13T05:12:51;49.37;;;30.40;;
19043;SDS011;9654;52.302;8.120;2023-10-13T05:15:42;43.87;;;27.80;;
19043;SDS011;9654;52.302;8.120;2023-10-13T05:18:26;52.37;;;30.77;;
19043;SDS011;9654;52.302;8.120;2023-10-13T05:21:10;49.47;;;31.13;;
19043;SDS011;9654;52.302;8.120;2023-10-13T05:23:54;49.77;;;30.60;;
19043;SDS011;9654;52.302;8.120;2023-10-13T05:26:40;47.23;;;30.63;;
19043;SDS011;9654;52.302;8.120;2023-10-13T05:29:38;43.87;;;28.50;;
19043;SDS011;9654;52.302;8.120;2023-10-13T05:32:22;46.57;;;28.60;;
19043;SDS011;9654;52.302;8.120;2023-10-13T05:35:07;43.20;;;26.73;;
19043;SDS011;9654;52.302;8.120;2023-10-13T05:37:57;37.73;;;23.97;;
19043;SDS011;9654;52.302;8.120;2023-10-13T05:40:50;38.10;;;24.57;;
19043;SDS011;9654;52.302;8.120;2023-10-13T05:43:37;41.60;;;24.27;;
19043;SDS011;9654;52.302;8.120;2023-10-13T05:46:21;30.00;;;21.93;;
19043;SDS011;9654;52.302;8.120;2023-10-13T05:49:06;32.20;;;20.50;;
19043;SDS011;9654;52.302;8.120;2023-10-13T05:52:04;25.33;;;18.97;;
19043;SDS011;9654;52.302;8.120;2023-10-13T05:54:33;24.17;;;18.10;;
19043;SDS011;9654;52.302;8.120;2023-10-13T05:57:17;23.13;;;15.90;;
19043;SDS011;9654;52.302;8.120;2023-10-13T06:00:02;26.23;;;15.80;;
19043;SDS011;9654;52.302;8.120;2023-10-13T06:02:47;20.83;;;14.50;;
19043;SDS011;9654;52.302;8.120;2023-10-13T06:05:31;22.60;;;14.47;;
19043;SDS011;9654;52.302;8.120;2023-10-13T06:08:29;19.70;;;14.73;;
19043;SDS011;9654;52.302;8.120;2023-10-13T06:11:13;31.03;;;16.13;;
19043;SDS011;9654;52.302;8.120;2023-10-13T06:13:58;24.73;;;16.53;;
19043;SDS011;9654;52.302;8.120;2023-10-13T06:16:44;25.10;;;17.20;;
19043;SDS011;9654;52.302;8.120;2023-10-13T06:19:28;26.03;;;18.47;;
19043;SDS011;9654;52.302;8.120;2023-10-13T06:22:12;24.10;;;17.70;;
19043;SDS011;9654;52.302;8.120;2023-10-13T06:24:56;25.87;;;17.57;;
19043;SDS011;9654;52.302;8.120;2023-10-13T06:27:40;26.13;;;17.40;;
19043;SDS011;9654;52.302;8.120;2023-10-13T06:30:24;26.47;;;16.93;;
19043;SDS011;9654;52.302;8.120;2023-10-13T06:32:52;22.10;;;15.50;;
19043;SDS011;9654;52.302;8.120;2023-10-13T06:35:19;21.73;;;14.73;;
19043;SDS011;9654;52.302;8.120;2023-10-13T06:37:49;22.37;;;15.50;;
19043;SDS011;9654;52.302;8.120;2023-10-13T06:40:15;25.47;;;15.50;;
19043;SDS011;9654;52.302;8.120;2023-10-13T06:42:50;25.47;;;16.40;;
19043;SDS011;9654;52.302;8.120;2023-10-13T06:45:18;27.60;;;16.70;;
19043;SDS011;9654;52.302;8.120;2023-10-13T06:47:46;23.97;;;17.03;;
19043;SDS011;9654;52.302;8.120;2023-10-13T06:50:18;27.97;;;17.63;;
19043;SDS011;9654;52.302;8.120;2023-10-13T06:52:49;27.47;;;18.27;;
19043;SDS011;9654;52.302;8.120;2023-10-13T06:55:20;24.33;;;17.77;;
19043;SDS011;9654;52.302;8.120;2023-10-13T06:57:52;24.93;;;18.73;;
19043;SDS011;9654;52.302;8.120;2023-10-13T07:00:18;30.83;;;19.63;;
19043;SDS011;9654;52.302;8.120;2023-10-13T07:02:53;28.10;;;17.40;;
19043;SDS011;9654;52.302;8.120;2023-10-13T07:05:33;27.20;;;17.50;;
19043;SDS011;9654;52.302;8.120;2023-10-13T07:08:00;24.63;;;17.03;;
19043;SDS011;9654;52.302;8.120;2023-10-13T07:10:29;22.30;;;15.80;;
19043;SDS011;9654;52.302;8.120;2023-10-13T07:13:00;21.23;;;15.43;;
19043;SDS011;9654;52.302;8.120;2023-10-13T07:15:29;21.57;;;13.87;;
19043;SDS011;9654;52.302;8.120;2023-10-13T07:17:56;20.20;;;14.07;;
19043;SDS011;9654;52.302;8.120;2023-10-13T07:20:24;25.57;;;14.03;;
19043;SDS011;9654;52.302;8.120;2023-10-13T07:23:00;20.17;;;13.87;;
19043;SDS011;9654;52.302;8.120;2023-10-13T07:25:29;18.73;;;13.03;;
19043;SDS011;9654;52.302;8.120;2023-10-13T07:27:57;21.07;;;13.73;;
19043;SDS011;9654;52.302;8.120;2023-10-13T07:30:24;20.93;;;13.80;;
19043;SDS011;9654;52.302;8.120;2023-10-13T07:32:53;20.77;;;13.60;;
19043;SDS011;9654;52.302;8.120;2023-10-13T07:35:22;18.73;;;13.53;;
19043;SDS011;9654;52.302;8.120;2023-10-13T07:37:51;16.53;;;13.40;;
19043;SDS011;9654;52.302;8.120;2023-10-13T07:40:22;21.37;;;13.27;;
19043;SDS011;9654;52.302;8.120;2023-10-13T07:43:04;19.20;;;12.70;;
19043;SDS011;9654;52.302;8.120;2023-10-13T07:45:35;18.60;;;12.17;;
19043;SDS011;9654;52.302;8.120;2023-10-13T07:48:03;18.37;;;11.57;;
19043;SDS011;9654;52.302;8.120;2023-10-13T07:50:37;17.23;;;11.53;;
19043;SDS011;9654;52.302;8.120;2023-10-13T07:53:04;15.60;;;10.93;;
19043;SDS011;9654;52.302;8.120;2023-10-13T07:55:45;15.47;;;10.73;;
19043;SDS011;9654;52.302;8.120;2023-10-13T07:58:13;14.27;;;9.80;;
19043;SDS011;9654;52.302;8.120;2023-10-13T08:00:40;13.50;;;9.90;;
19043;SDS011;9654;52.302;8.120;2023-10-13T08:03:19;16.47;;;8.77;;
19043;SDS011;9654;52.302;8.120;2023-10-13T08:05:57;16.13;;;9.80;;
19043;SDS011;9654;52.302;8.120;2023-10-13T08:08:30;14.43;;;9.67;;
19043;SDS011;9654;52.302;8.120;2023-10-13T08:11:04;12.87;;;8.73;;
19043;SDS011;9654;52.302;8.120;2023-10-13T08:13:36;15.77;;;9.10;;
19043;SDS011;9654;52.302;8.120;2023-10-13T08:16:04;15.37;;;9.87;;
19043;SDS011;9654;52.302;8.120;2023-10-13T08:18:33;36.17;;;19.80;;
19043;SDS011;9654;52.302;8.120;2023-10-13T08:21:01;22.83;;;13.83;;
19043;SDS011;9654;52.302;8.120;2023-10-13T08:23:29;16.20;;;10.47;;
19043;SDS011;9654;52.302;8.120;2023-10-13T08:26:17;11.63;;;9.20;;
19043;SDS011;9654;52.302;8.120;2023-10-13T08:29:17;16.63;;;10.43;;
19043;SDS011;9654;52.302;8.120;2023-10-13T08:32:01;14.17;;;9.00;;
19043;SDS011;9654;52.302;8.120;2023-10-13T08:34:39;17.23;;;9.93;;
19043;SDS011;9654;52.302;8.120;2023-10-13T08:37:25;16.70;;;10.33;;
19043;SDS011;9654;52.302;8.120;2023-10-13T08:39:55;15.17;;;10.27;;
19043;SDS011;9654;52.302;8.120;2023-10-13T08:42:48;20.30;;;10.67;;
19043;SDS011;9654;52.302;8.120;2023-10-13T08:45:35;14.97;;;10.83;;
19043;SDS011;9654;52.302;8.120;2023-10-13T08:48:23;15.67;;;10.53;;
19043;SDS011;9654;52.302;8.120;2023-10-13T08:51:00;18.17;;;11.63;;
19043;SDS011;9654;52.302;8.120;2023-10-13T08:53:39;21.23;;;10.90;;
19043;SDS011;9654;52.302;8.120;2023-10-13T08:56:17;17.30;;;11.27;;
19043;SDS011;9654;52.302;8.120;2023-10-13T08:59:00;16.53;;;10.33;;
19043;SDS011;9654;52.302;8.120;2023-10-13T09:01:35;12.87;;;8.53;;
19043;SDS011;9654;52.302;8.120;2023-10-13T09:04:11;23.70;;;8.27;;
19043;SDS011;9654;52.302;8.120;2023-10-13T09:06:47;12.70;;;7.63;;
19043;SDS011;9654;52.302;8.120;2023-10-13T09:09:28;14.17;;;7.10;;
19043;SDS011;9654;52.302;8.120;2023-10-13T09:12:00;13.67;;;6.73;;
19043;SDS011;9654;52.302;8.120;2023-10-13T09:14:36;16.10;;;6.20;;
19043;SDS011;9654;52.302;8.120;2023-10-13T09:17:08;20.90;;;6.77;;
19043;SDS011;9654;52.302;8.120;2023-10-13T09:19:43;12.90;;;5.90;;
19043;SDS011;9654;52.302;8.120;2023-10-13T09:22:20;17.60;;;5.93;;
19043;SDS011;9654;52.302;8.120;2023-10-13T09:25:00;19.43;;;6.23;;
19043;SDS011;9654;52.302;8.120;2023-10-13T09:27:28;13.23;;;6.87;;
19043;SDS011;9654;52.302;8.120;2023-10-13T09:29:59;14.27;;;5.97;;
19043;SDS011;9654;52.302;8.120;2023-10-13T09:32:35;11.20;;;5.50;;
19043;SDS011;9654;52.302;8.120;2023-10-13T09:35:11;12.17;;;6.60;;
19043;SDS011;9654;52.302;8.120;2023-10-13T09:37:44;17.57;;;7.77;;
19043;SDS011;9654;52.302;8.120;2023-10-13T09:40:11;12.57;;;6.83;;
19043;SDS011;9654;52.302;8.120;2023-10-13T09:42:59;17.10;;;6.73;;
19043;SDS011;9654;52.302;8.120;2023-10-13T09:45:34;16.30;;;6.60;;
19043;SDS011;9654;52.302;8.120;2023-10-13T09:48:06;11.27;;;6.57;;
19043;SDS011;9654;52.302;8.120;2023-10-13T09:50:41;16.00;;;6.30;;
19043;SDS011;9654;52.302;8.120;2023-10-13T09:53:10;11.40;;;5.60;;
19043;SDS011;9654;52.302;8.120;2023-10-13T09:55:40;14.73;;;6.57;;
19043;SDS011;9654;52.302;8.120;2023-10-13T09:58:11;15.37;;;5.77;;
19043;SDS011;9654;52.302;8.120;2023-10-13T10:00:43;12.73;;;5.50;;
19043;SDS011;9654;52.302;8.120;2023-10-13T10:03:21;15.90;;;5.93;;
19043;SDS011;9654;52.302;8.120;2023-10-13T10:06:04;11.73;;;4.77;;
19043;SDS011;9654;52.302;8.120;2023-10-13T10:08:38;18.67;;;5.60;;
19043;SDS011;9654;52.302;8.120;2023-10-13T10:11:23;11.23;;;5.30;;
19043;SDS011;9654;52.302;8.120;2023-10-13T10:14:15;15.07;;;5.43;;
19043;SDS011;9654;52.302;8.120;2023-10-13T10:16:50;11.40;;;5.77;;
19043;SDS011;9654;52.302;8.120;2023-10-13T10:19:25;11.83;;;5.40;;
19043;SDS011;9654;52.302;8.120;2023-10-13T10:22:00;12.73;;;6.30;;
19043;SDS011;9654;52.302;8.120;2023-10-13T10:24:31;17.57;;;5.70;;
19043;SDS011;9654;52.302;8.120;2023-10-13T10:27:01;18.17;;;5.30;;
19043;SDS011;9654;52.302;8.120;2023-10-13T10:29:29;18.17;;;5.40;;
19043;SDS011;9654;52.302;8.120;2023-10-13T10:31:58;11.03;;;4.70;;
19043;SDS011;9654;52.302;8.120;2023-10-13T10:34:31;9.57;;;5.60;;
19043;SDS011;9654;52.302;8.120;2023-10-13T10:36:58;11.13;;;5.70;;
19043;SDS011;9654;52.302;8.120;2023-10-13T10:39:33;14.97;;;5.50;;
19043;SDS011;9654;52.302;8.120;2023-10-13T10:42:07;19.93;;;5.73;;
19043;SDS011;9654;52.302;8.120;2023-10-13T10:44:40;13.80;;;5.60;;
19043;SDS011;9654;52.302;8.120;2023-10-13T10:47:10;13.07;;;5.33;;
19043;SDS011;9654;52.302;8.120;2023-10-13T10:49:44;11.10;;;5.10;;
19043;SDS011;9654;52.302;8.120;2023-10-13T10:52:11;17.40;;;5.77;;
19043;SDS011;9654;52.302;8.120;2023-10-13T10:54:44;12.60;;;5.30;;
19043;SDS011;9654;52.302;8.120;2023-10-13T10:57:17;17.57;;;5.40;;
19043;SDS011;9654;52.302;8.120;2023-10-13T10:59:44;13.93;;;5.93;;
19043;SDS011;9654;52.302;8.120;2023-10-13T11:02:12;14.10;;;4.90;;
19043;SDS011;9654;52.302;8.120;2023-10-13T11:04:43;18.13;;;6.00;;
19043;SDS011;9654;52.302;8.120;2023-10-13T11:07:20;15.53;;;5.27;;
19043;SDS011;9654;52.302;8.120;2023-10-13T11:09:48;12.57;;;5.50;;
19043;SDS011;9654;52.302;8.120;2023-10-13T11:12:18;19.10;;;5.93;;
19043;SDS011;9654;52.302;8.120;2023-10-13T11:15:00;14.93;;;5.40;;
19043;SDS011;9654;52.302;8.120;2023-10-13T11:17:31;12.90;;;5.17;;
19043;SDS011;9654;52.302;8.120;2023-10-13T11:20:08;19.70;;;5.90;;
19043;SDS011;9654;52.302;8.120;2023-10-13T11:22:41;16.00;;;5.27;;
19043;SDS011;9654;52.302;8.120;2023-10-13T11:25:19;17.30;;;5.00;;
19043;SDS011;9654;52.302;8.120;2023-10-13T11:27:48;18.37;;;5.50;;
19043;SDS011;9654;52.302;8.120;2023-10-13T11:30:25;10.87;;;5.30;;
19043;SDS011;9654;52.302;8.120;2023-10-13T11:32:58;20.60;;;5.47;;
19043;SDS011;9654;52.302;8.120;2023-10-13T11:35:25;17.13;;;6.17;;
19043;SDS011;9654;52.302;8.120;2023-10-13T11:38:13;14.60;;;5.30;;
19043;SDS011;9654;52.302;8.120;2023-10-13T11:40:49;16.73;;;5.87;;
19043;SDS011;9654;52.302;8.120;2023-10-13T11:43:33;18.07;;;5.43;;
19043;SDS011;9654;52.302;8.120;2023-10-13T11:46:17;15.30;;;5.00;;
19043;SDS011;9654;52.302;8.120;2023-10-13T11:49:06;15.60;;;5.27;;
19043;SDS011;9654;52.302;8.120;2023-10-13T11:51:42;15.57;;;4.80;;
19043;SDS011;9654;52.302;8.120;2023-10-13T11:54:11;21.17;;;5.77;;
19043;SDS011;9654;52.302;8.120;2023-10-13T11:56:37;14.43;;;4.73;;
19043;SDS011;9654;52.302;8.120;2023-10-13T11:59:04;19.57;;;5.00;;
19043;SDS011;9654;52.302;8.120;2023-10-13T12:01:31;9.53;;;5.10;;
19043;SDS011;9654;52.302;8.120;2023-10-13T12:04:13;15.60;;;5.43;;
19043;SDS011;9654;52.302;8.120;2023-10-13T12:07:06;11.40;;;4.77;;
19043;SDS011;9654;52.302;8.120;2023-10-13T12:09:45;12.57;;;4.73;;
19043;SDS011;9654;52.302;8.120;2023-10-13T12:12:28;18.37;;;5.20;;
19043;SDS011;9654;52.302;8.120;2023-10-13T12:14:56;19.00;;;6.47;;
19043;SDS011;9654;52.302;8.120;2023-10-13T12:17:23;17.27;;;6.57;;
19043;SDS011;9654;52.302;8.120;2023-10-13T12:19:57;17.80;;;5.97;;
19043;SDS011;9654;52.302;8.120;2023-10-13T12:22:25;17.70;;;5.95;;
19043;SDS011;9654;52.302;8.120;2023-10-13T12:24:53;18.67;;;5.93;;
19043;SDS011;9654;52.302;8.120;2023-10-13T12:27:20;18.77;;;6.45;;
19043;SDS011;9654;52.302;8.120;2023-10-13T12:29:52;17.03;;;5.77;;
19043;SDS011;9654;52.302;8.120;2023-10-13T12:32:21;20.87;;;5.67;;
19043;SDS011;9654;52.302;8.120;2023-10-13T12:34:50;17.53;;;5.27;;
19043;SDS011;9654;52.302;8.120;2023-10-13T12:37:27;17.43;;;5.40;;
19043;SDS011;9654;52.302;8.120;2023-10-13T12:40:15;20.13;;;5.30;;
19043;SDS011;9654;52.302;8.120;2023-10-13T12:43:00;14.47;;;5.93;;
19043;SDS011;9654;52.302;8.120;2023-10-13T12:45:46;22.50;;;5.97;;
19043;SDS011;9654;52.302;8.120;2023-10-13T12:48:32;24.83;;;6.80;;
19043;SDS011;9654;52.302;8.120;2023-10-13T12:51:17;20.38;;;6.13;;
19043;SDS011;9654;52.302;8.120;2023-10-13T12:54:06;14.80;;;5.67;;
19043;SDS011;9654;52.302;8.120;2023-10-13T12:56:39;20.07;;;7.07;;
19043;SDS011;9654;52.302;8.120;2023-10-13T12:59:08;18.73;;;5.72;;
19043;SDS011;9654;52.302;8.120;2023-10-13T13:01:38;17.58;;;5.97;;
19043;SDS011;9654;52.302;8.120;2023-10-13T13:04:08;13.87;;;6.27;;
19043;SDS011;9654;52.302;8.120;2023-10-13T13:06:43;10.97;;;5.67;;
19043;SDS011;9654;52.302;8.120;2023-10-13T13:09:11;20.20;;;6.00;;
19043;SDS011;9654;52.302;8.120;2023-10-13T13:11:38;14.83;;;6.13;;
19043;SDS011;9654;52.302;8.120;2023-10-13T13:14:05;17.80;;;6.10;;
19043;SDS011;9654;52.302;8.120;2023-10-13T13:16:34;14.97;;;6.80;;
19043;SDS011;9654;52.302;8.120;2023-10-13T13:19:04;15.33;;;5.90;;
19043;SDS011;9654;52.302;8.120;2023-10-13T13:21:36;16.52;;;5.57;;
19043;SDS011;9654;52.302;8.120;2023-10-13T13:24:03;16.20;;;6.18;;
19043;SDS011;9654;52.302;8.120;2023-10-13T13:26:37;18.35;;;6.10;;
19043;SDS011;9654;52.302;8.120;2023-10-13T13:29:06;12.77;;;6.22;;
19043;SDS011;9654;52.302;8.120;2023-10-13T13:31:35;25.25;;;6.78;;
19043;SDS011;9654;52.302;8.120;2023-10-13T13:34:07;16.03;;;5.73;;
19043;SDS011;9654;52.302;8.120;2023-10-13T13:36:36;14.10;;;5.75;;
19043;SDS011;9654;52.302;8.120;2023-10-13T13:39:03;16.02;;;6.32;;
19043;SDS011;9654;52.302;8.120;2023-10-13T13:41:31;17.83;;;6.10;;
19043;SDS011;9654;52.302;8.120;2023-10-13T13:44:00;12.98;;;5.68;;
19043;SDS011;9654;52.302;8.120;2023-10-13T13:46:38;13.68;;;6.10;;
19043;SDS011;9654;52.302;8.120;2023-10-13T13:49:07;15.48;;;6.32;;
19043;SDS011;9654;52.302;8.120;2023-10-13T13:51:43;18.88;;;6.47;;
19043;SDS011;9654;52.302;8.120;2023-10-13T13:54:16;22.05;;;5.45;;
19043;SDS011;9654;52.302;8.120;2023-10-13T13:56:44;20.70;;;6.60;;
19043;SDS011;9654;52.302;8.120;2023-10-13T13:59:12;15.15;;;6.00;;
19043;SDS011;9654;52.302;8.120;2023-10-13T14:01:41;14.70;;;6.35;;
19043;SDS011;9654;52.302;8.120;2023-10-13T14:04:09;12.27;;;6.20;;
19043;SDS011;9654;52.302;8.120;2023-10-13T14:06:39;21.40;;;6.45;;
19043;SDS011;9654;52.302;8.120;2023-10-13T14:09:05;18.10;;;5.68;;
19043;SDS011;9654;52.302;8.120;2023-10-13T14:11:40;19.40;;;6.95;;
19043;SDS011;9654;52.302;8.120;2023-10-13T14:14:26;18.80;;;6.40;;
19043;SDS011;9654;52.302;8.120;2023-10-13T14:16:58;18.60;;;5.80;;
19043;SDS011;9654;52.302;8.120;2023-10-13T14:19:31;22.60;;;6.50;;
19043;SDS011;9654;52.302;8.120;2023-10-13T14:21:59;23.93;;;6.43;;
19043;SDS011;9654;52.302;8.120;2023-10-13T14:24:31;20.33;;;6.10;;
19043;SDS011;9654;52.302;8.120;2023-10-13T14:27:00;21.55;;;6.53;;
19043;SDS011;9654;52.302;8.120;2023-10-13T14:29:35;15.35;;;6.32;;
19043;SDS011;9654;52.302;8.120;2023-10-13T14:32:06;16.65;;;6.35;;
19043;SDS011;9654;52.302;8.120;2023-10-13T14:34:37;19.85;;;6.88;;
19043;SDS011;9654;52.302;8.120;2023-10-13T14:37:05;26.70;;;6.20;;
19043;SDS011;9654;52.302;8.120;2023-10-13T14:39:31;16.07;;;5.67;;
19043;SDS011;9654;52.302;8.120;2023-10-13T14:42:00;25.65;;;6.47;;
19043;SDS011;9654;52.302;8.120;2023-10-13T14:44:27;22.10;;;5.95;;
19043;SDS011;9654;52.302;8.120;2023-10-13T14:46:56;23.58;;;6.18;;
19043;SDS011;9654;52.302;8.120;2023-10-13T14:49:22;19.40;;;5.85;;
19043;SDS011;9654;52.302;8.120;2023-10-13T14:51:49;14.20;;;5.07;;
19043;SDS011;9654;52.302;8.120;2023-10-13T14:54:16;15.87;;;5.13;;
19043;SDS011;9654;52.302;8.120;2023-10-13T14:56:50;17.57;;;5.77;;
19043;SDS011;9654;52.302;8.120;2023-10-13T14:59:20;17.80;;;5.20;;
19043;SDS011;9654;52.302;8.120;2023-10-13T15:01:47;14.23;;;5.50;;
19043;SDS011;9654;52.302;8.120;2023-10-13T15:04:16;24.00;;;5.78;;
19043;SDS011;9654;52.302;8.120;2023-10-13T15:06:44;18.93;;;5.40;;
19043;SDS011;9654;52.302;8.120;2023-10-13T15:09:10;18.90;;;5.65;;
19043;SDS011;9654;52.302;8.120;2023-10-13T15:11:37;22.50;;;5.03;;
19043;SDS011;9654;52.302;8.120;2023-10-13T15:14:10;15.97;;;4.63;;
19043;SDS011;9654;52.302;8.120;2023-10-13T15:16:38;19.70;;;5.57;;
19043;SDS011;9654;52.302;8.120;2023-10-13T15:19:06;19.60;;;5.13;;